Time,TemperatureF,DewpointF,PressureIn,WindDirection,WindDirectionDegrees,WindSpeedMPH,WindSpeedGustMPH,Humidity,HourlyPrecipIn,Conditions,Clouds,dailyrainin,SoftwareType,DateUTC
2013-05-08 00:09:00,67.9,61.0,30.05,NW,314,0.0,-999.0,79,-99.99,,,0.00,weatherlink.com 1.10,2013-05-08 04:09:00,
2013-05-08 00:24:00,68.0,61.0,30.05,WSW,241,0.0,-999.0,78,-99.99,,,0.00,weatherlink.com 1.10,2013-05-08 04:24:00,
2013-05-08 00:39:00,67.8,61.0,30.06,West,274,0.0,-999.0,78,-99.99,,,0.00,weatherlink.com 1.10,2013-05-08 04:39:00,
2013-05-08 00:54:00,67.2,61.0,30.06,WNW,286,1.0,-999.0,80,-99.99,,,0.00,weatherlink.com 1.10,2013-05-08 04:54:00,
2013-05-08 01:09:00,66.6,61.0,30.05,WNW,284,0.0,-999.0,82,-99.99,,,0.00,weatherlink.com 1.10,2013-05-08 05:09:00,
2013-05-08 01:24:00,66.2,61.0,30.05,WNW,283,0.0,-999.0,83,-99.99,,,0.00,weatherlink.com 1.10,2013-05-08 05:24:00,
2013-05-08 01:39:00,66.4,61.0,30.04,West,267,0.0,-999.0,82,-99.99,,,0.00,weatherlink.com 1.10,2013-05-08 05:39:00,
2013-05-08 01:54:00,66.1,61.0,30.04,West,278,0.0,-999.0,83,-99.99,,,0.00,weatherlink.com 1.10,2013-05-08 05:54:00,
2013-05-08 02:09:00,65.6,61.0,30.04,WSW,245,0.0,-999.0,85,-99.99,,,0.00,weatherlink.com 1.10,2013-05-08 06:09:00,
2013-05-08 02:24:00,65.2,61.0,30.03,WNW,287,0.0,-999.0,85,-99.99,,,0.00,weatherlink.com 1.10,2013-05-08 06:24:00,
2013-05-08 02:39:00,65.4,61.0,30.03,WSW,249,1.0,-999.0,85,-99.99,,,0.00,weatherlink.com 1.10,2013-05-08 06:39:00,
2013-05-08 02:54:00,64.8,61.0,30.03,West,277,0.0,-999.0,86,-99.99,,,0.00,weatherlink.com 1.10,2013-05-08 06:54:00,
2013-05-08 03:09:00,64.3,60.0,30.03,West,280,0.0,-999.0,87,-99.99,,,0.00,weatherlink.com 1.10,2013-05-08 07:09:00,
2013-05-08 03:24:00,64.0,60.0,30.03,WNW,288,0.0,-999.0,88,-99.99,,,0.00,weatherlink.com 1.10,2013-05-08 07:24:00,
2013-05-08 03:39:00,64.0,60.0,30.04,West,260,0.0,-999.0,88,-99.99,,,0.00,weatherlink.com 1.10,2013-05-08 07:39:00,
2013-05-08 03:54:00,64.1,61.0,30.04,WSW,245,0.0,-999.0,88,-99.99,,,0.00,weatherlink.com 1.10,2013-05-08 07:54:00,
2013-05-08 04:09:00,64.0,61.0,30.04,West,267,0.0,-999.0,89,-99.99,,,0.00,weatherlink.com 1.10,2013-05-08 08:09:00,
2013-05-08 04:24:00,63.6,60.0,30.04,West,271,0.0,-999.0,89,-99.99,,,0.00,weatherlink.com 1.10,2013-05-08 08:24:00,
2013-05-08 04:39:00,63.5,60.0,30.04,WSW,256,1.0,-999.0,89,-99.99,,,0.00,weatherlink.com 1.10,2013-05-08 08:39:00,
2013-05-08 04:54:00,63.3,60.0,30.05,WSW,238,0.0,-999.0,90,-99.99,,,0.00,weatherlink.com 1.10,2013-05-08 08:54:00,
2013-05-08 05:09:00,63.1,60.0,30.05,West,267,0.0,-999.0,90,-99.99,,,0.00,weatherlink.com 1.10,2013-05-08 09:09:00,
2013-05-08 05:24:00,63.0,60.0,30.05,WSW,256,0.0,-999.0,91,-99.99,,,0.00,weatherlink.com 1.10,2013-05-08 09:24:00,
2013-05-08 05:39:00,62.9,61.0,30.06,WSW,252,0.0,-999.0,92,-99.99,,,0.00,weatherlink.com 1.10,2013-05-08 09:39:00,
2013-05-08 05:54:00,62.7,60.0,30.07,WSW,253,0.0,-999.0,92,-99.99,,,0.00,weatherlink.com 1.10,2013-05-08 09:54:00,
2013-05-08 06:09:00,62.2,60.0,30.07,WSW,254,0.0,-999.0,92,-99.99,,,0.00,weatherlink.com 1.10,2013-05-08 10:09:00,
2013-05-08 06:24:00,62.1,60.0,30.07,WNW,290,1.0,-999.0,93,-99.99,,,0.00,weatherlink.com 1.10,2013-05-08 10:24:00,
2013-05-08 06:39:00,62.2,60.0,30.08,West,273,0.0,-999.0,92,-99.99,,,0.00,weatherlink.com 1.10,2013-05-08 10:39:00,
2013-05-08 06:54:00,62.4,60.0,30.08,West,273,0.0,-999.0,92,-99.99,,,0.00,weatherlink.com 1.10,2013-05-08 10:54:00,
2013-05-08 07:09:00,62.7,60.0,30.08,West,273,0.0,-999.0,92,-99.99,,,0.00,weatherlink.com 1.10,2013-05-08 11:09:00,
2013-05-08 07:24:00,64.2,62.0,30.09,West,273,0.0,-999.0,91,-99.99,,,0.00,weatherlink.com 1.10,2013-05-08 11:24:00,
2013-05-08 07:39:00,65.4,62.0,30.09,WNW,283,0.0,-999.0,88,-99.99,,,0.00,weatherlink.com 1.10,2013-05-08 11:39:00,
2013-05-08 07:54:00,66.9,63.0,30.10,WSW,237,0.0,-999.0,87,-99.99,,,0.00,weatherlink.com 1.10,2013-05-08 11:54:00,
2013-05-08 08:09:00,68.4,64.0,30.10,West,265,0.0,-999.0,85,-99.99,,,0.00,weatherlink.com 1.10,2013-05-08 12:09:00,
2013-05-08 08:24:00,68.9,64.0,30.11,WNW,292,2.0,-999.0,83,-99.99,,,0.00,weatherlink.com 1.10,2013-05-08 12:24:00,
2013-05-08 08:40:00,70.2,64.0,30.11,WSW,248,0.0,-999.0,81,-99.99,,,0.00,weatherlink.com 1.10,2013-05-08 12:40:00,
2013-05-08 08:55:00,71.6,64.0,30.11,West,277,0.0,-999.0,78,-99.99,,,0.00,weatherlink.com 1.10,2013-05-08 12:55:00,
2013-05-08 09:10:00,72.7,64.0,30.11,WNW,300,0.0,-999.0,75,-99.99,,,0.00,weatherlink.com 1.10,2013-05-08 13:10:00,
2013-05-08 09:25:00,73.0,64.0,30.12,West,273,0.0,-999.0,73,-99.99,,,0.00,weatherlink.com 1.10,2013-05-08 13:25:00,
2013-05-08 09:40:00,74.5,64.0,30.12,SSW,194,0.0,-999.0,69,-99.99,,,0.00,weatherlink.com 1.10,2013-05-08 13:40:00,
2013-05-08 09:55:00,75.3,64.0,30.12,WSW,249,0.0,-999.0,67,-99.99,,,0.00,weatherlink.com 1.10,2013-05-08 13:55:00,
2013-05-08 10:10:00,76.4,63.0,30.12,NW,323,3.0,-999.0,64,-99.99,,,0.00,weatherlink.com 1.10,2013-05-08 14:10:00,
2013-05-08 10:25:00,76.3,63.0,30.12,WSW,257,0.0,-999.0,64,-99.99,,,0.00,weatherlink.com 1.10,2013-05-08 14:25:00,
2013-05-08 10:40:00,76.0,62.0,30.12,WSW,246,0.0,-999.0,63,-99.99,,,0.00,weatherlink.com 1.10,2013-05-08 14:40:00,
2013-05-08 10:55:00,77.4,64.0,30.12,WNW,294,3.0,-999.0,63,-99.99,,,0.00,weatherlink.com 1.10,2013-05-08 14:55:00,
2013-05-08 11:10:00,79.6,62.0,30.12,SSE,161,0.0,-999.0,55,-99.99,,,0.00,weatherlink.com 1.10,2013-05-08 15:10:00,
2013-05-08 11:25:00,80.5,64.0,30.12,SSW,200,0.0,-999.0,58,-99.99,,,0.00,weatherlink.com 1.10,2013-05-08 15:25:00,
2013-05-08 11:40:00,81.0,62.0,30.12,West,275,1.0,-999.0,52,-99.99,,,0.00,weatherlink.com 1.10,2013-05-08 15:40:00,
2013-05-08 11:55:00,80.7,61.0,30.11,SW,223,1.0,-999.0,52,-99.99,,,0.00,weatherlink.com 1.10,2013-05-08 15:55:00,
2013-05-08 12:10:00,82.0,61.0,30.11,SW,223,0.0,-999.0,49,-99.99,,,0.00,weatherlink.com 1.10,2013-05-08 16:10:00,
2013-05-08 12:25:00,82.9,61.0,30.11,East,80,1.0,-999.0,48,-99.99,,,0.00,weatherlink.com 1.10,2013-05-08 16:25:00,
2013-05-08 12:40:00,83.3,59.0,30.10,WNW,289,1.0,-999.0,44,-99.99,,,0.00,weatherlink.com 1.10,2013-05-08 16:40:00,
2013-05-08 12:55:00,84.2,62.0,30.10,SW,225,0.0,-999.0,47,-99.99,,,0.00,weatherlink.com 1.10,2013-05-08 16:55:00,
2013-05-08 13:10:00,85.1,57.0,30.10,SSW,196,3.0,-999.0,39,-99.99,,,0.00,weatherlink.com 1.10,2013-05-08 17:10:00,
2013-05-08 13:25:00,85.4,58.0,30.09,WSW,252,1.0,-999.0,40,-99.99,,,0.00,weatherlink.com 1.10,2013-05-08 17:25:00,
2013-05-08 13:40:00,85.7,57.0,30.09,SW,225,0.0,-999.0,37,-99.99,,,0.00,weatherlink.com 1.10,2013-05-08 17:40:00,
2013-05-08 13:55:00,86.1,59.0,30.09,SW,234,0.0,-999.0,40,-99.99,,,0.00,weatherlink.com 1.10,2013-05-08 17:55:00,
2013-05-08 14:10:00,86.3,60.0,30.08,SW,232,1.0,-999.0,41,-99.99,,,0.00,weatherlink.com 1.10,2013-05-08 18:10:00,
2013-05-08 14:25:00,86.8,57.0,30.08,WNW,284,1.0,-999.0,36,-99.99,,,0.00,weatherlink.com 1.10,2013-05-08 18:25:00,
2013-05-08 14:55:00,87.6,57.0,30.07,SW,214,1.0,-999.0,35,-99.99,,,0.00,weatherlink.com 1.10,2013-05-08 18:55:00,
2013-05-08 15:10:00,87.9,56.0,30.07,SSW,202,0.0,-999.0,34,-99.99,,,0.00,weatherlink.com 1.10,2013-05-08 19:10:00,
2013-05-08 15:26:00,88.3,57.0,30.06,WNW,298,2.0,-999.0,34,-99.99,,,0.00,weatherlink.com 1.10,2013-05-08 19:26:00,
2013-05-08 15:41:00,87.6,57.0,30.06,SSW,206,0.0,-999.0,35,-99.99,,,0.00,weatherlink.com 1.10,2013-05-08 19:41:00,
2013-05-08 15:56:00,88.3,58.0,30.05,SE,141,6.0,-999.0,36,-99.99,,,0.00,weatherlink.com 1.10,2013-05-08 19:56:00,
2013-05-08 16:11:00,88.2,58.0,30.05,South,176,5.0,-999.0,36,-99.99,,,0.00,weatherlink.com 1.10,2013-05-08 20:11:00,
2013-05-08 16:26:00,88.2,59.0,30.05,WSW,252,3.0,-999.0,37,-99.99,,,0.00,weatherlink.com 1.10,2013-05-08 20:26:00,
2013-05-08 16:41:00,88.3,58.0,30.05,WSW,253,1.0,-999.0,36,-99.99,,,0.00,weatherlink.com 1.10,2013-05-08 20:41:00,
2013-05-08 16:56:00,88.6,58.0,30.05,WSW,248,0.0,-999.0,35,-99.99,,,0.00,weatherlink.com 1.10,2013-05-08 20:56:00,
2013-05-08 17:11:00,88.7,57.0,30.05,NW,307,3.0,-999.0,34,-99.99,,,0.00,weatherlink.com 1.10,2013-05-08 21:11:00,
2013-05-08 17:26:00,88.1,56.0,30.05,SSE,165,0.0,-999.0,33,-99.99,,,0.00,weatherlink.com 1.10,2013-05-08 21:26:00,
2013-05-08 17:41:00,87.6,57.0,30.04,WNW,284,1.0,-999.0,36,-99.99,,,0.00,weatherlink.com 1.10,2013-05-08 21:41:00,
2013-05-08 17:56:00,87.0,58.0,30.04,West,281,2.0,-999.0,38,-99.99,,,0.00,weatherlink.com 1.10,2013-05-08 21:56:00,
2013-05-08 18:11:00,87.0,58.0,30.05,SW,221,0.0,-999.0,38,-99.99,,,0.00,weatherlink.com 1.10,2013-05-08 22:11:00,
2013-05-08 18:26:00,86.6,60.0,30.04,West,277,0.0,-999.0,40,-99.99,,,0.00,weatherlink.com 1.10,2013-05-08 22:26:00,
2013-05-08 18:41:00,86.9,60.0,30.04,WSW,241,0.0,-999.0,41,-99.99,,,0.00,weatherlink.com 1.10,2013-05-08 22:41:00,
2013-05-08 18:56:00,86.0,60.0,30.04,WNW,302,0.0,-999.0,42,-99.99,,,0.00,weatherlink.com 1.10,2013-05-08 22:56:00,
2013-05-08 19:11:00,86.4,61.0,30.04,West,279,0.0,-999.0,42,-99.99,,,0.00,weatherlink.com 1.10,2013-05-08 23:11:00,
2013-05-08 19:26:00,84.0,64.0,30.04,East,98,1.0,-999.0,52,-99.99,,,0.00,weatherlink.com 1.10,2013-05-08 23:26:00,
2013-05-08 19:41:00,81.0,64.0,30.05,ESE,115,0.0,-999.0,57,-99.99,,,0.00,weatherlink.com 1.10,2013-05-08 23:41:00,
2013-05-08 19:56:00,79.6,64.0,30.05,SE,140,0.0,-999.0,60,-99.99,,,0.00,weatherlink.com 1.10,2013-05-08 23:56:00,
2013-05-08 20:11:00,78.7,65.0,30.05,ESE,107,4.0,-999.0,62,-99.99,,,0.00,weatherlink.com 1.10,2013-05-09 00:11:00,
2013-05-08 20:26:00,78.0,64.0,30.06,SSE,155,2.0,-999.0,63,-99.99,,,0.00,weatherlink.com 1.10,2013-05-09 00:26:00,
2013-05-08 20:41:00,77.6,64.0,30.06,SSE,161,1.0,-999.0,64,-99.99,,,0.00,weatherlink.com 1.10,2013-05-09 00:41:00,
2013-05-08 20:56:00,77.4,66.0,30.07,SE,130,0.0,-999.0,67,-99.99,,,0.00,weatherlink.com 1.10,2013-05-09 00:56:00,
2013-05-08 21:11:00,77.1,66.0,30.07,SSE,148,0.0,-999.0,69,-99.99,,,0.00,weatherlink.com 1.10,2013-05-09 01:11:00,
2013-05-08 21:26:00,76.6,66.0,30.08,SSE,150,0.0,-999.0,70,-99.99,,,0.00,weatherlink.com 1.10,2013-05-09 01:26:00,
2013-05-08 21:41:00,76.2,67.0,30.09,SSE,152,0.0,-999.0,72,-99.99,,,0.00,weatherlink.com 1.10,2013-05-09 01:41:00,
2013-05-08 21:56:00,75.7,67.0,30.09,SSE,161,0.0,-999.0,74,-99.99,,,0.00,weatherlink.com 1.10,2013-05-09 01:56:00,
2013-05-08 22:11:00,75.7,67.0,30.10,West,275,0.0,-999.0,74,-99.99,,,0.00,weatherlink.com 1.10,2013-05-09 02:11:00,
2013-05-08 22:26:00,75.5,65.0,30.10,WSW,257,0.0,-999.0,70,-99.99,,,0.00,weatherlink.com 1.10,2013-05-09 02:26:00,
2013-05-08 22:41:00,75.4,64.0,30.11,WNW,292,0.0,-999.0,67,-99.99,,,0.00,weatherlink.com 1.10,2013-05-09 02:41:00,
2013-05-08 22:56:00,74.0,62.0,30.11,WNW,292,0.0,-999.0,66,-99.99,,,0.00,weatherlink.com 1.10,2013-05-09 02:56:00,
2013-05-08 23:11:00,73.5,61.0,30.12,WSW,258,0.0,-999.0,64,-99.99,,,0.00,weatherlink.com 1.10,2013-05-09 03:11:00,
2013-05-08 23:26:00,72.7,61.0,30.12,SSW,209,0.0,-999.0,67,-99.99,,,0.00,weatherlink.com 1.10,2013-05-09 03:26:00,
2013-05-08 23:41:00,72.2,60.0,30.11,SSW,208,0.0,-999.0,65,-99.99,,,0.00,weatherlink.com 1.10,2013-05-09 03:41:00,
2013-05-08 23:56:00,72.0,60.0,30.11,SSW,209,0.0,-999.0,67,-99.99,,,0.00,weatherlink.com 1.10,2013-05-09 03:56:00,